CPA1862 ZSAM-VHHH
Flight info
| Callsign | CPA1862 |
|---|---|
| Flight time | 1h 1m |
| Altitude | 25600 |
| Route | NUSPA9Z NUSPA W597 IKATA A470 BEBEM/N0485F256 A470 DOTMI V512 ABBEY |
| Aircraft | B77W/H-SDE1E2E3FGHIJ2J3J4J5M1RWXY/LB1D1 |
Departure
| Time | 2026-04-30 05:47 |
|---|---|
| Airport | Xiamen Gaoqi International Airport (ZSAM) |
Arrival
| Time | 2026-04-30 06:48 |
|---|---|
| Airport | Hong Kong International Airport (VHHH) |
| Time | Latitude | Longitude | Altitude | Speed | Heading |
|---|---|---|---|---|---|
| 2026-04-30 05:25 | 24.54257 | 118.13210 | 77 ft | 0 kts | 142° |
| 2026-04-30 05:30 | 24.54266 | 118.13202 | 77 ft | 2 kts | 142° |
| 2026-04-30 05:30 | 24.54279 | 118.13193 | 77 ft | 2 kts | 159° |
| 2026-04-30 05:30 | 24.54293 | 118.13189 | 77 ft | 2 kts | 179° |
| 2026-04-30 05:30 | 24.54308 | 118.13191 | 77 ft | 2 kts | 196° |
| 2026-04-30 05:31 | 24.54322 | 118.13197 | 77 ft | 2 kts | 214° |
| 2026-04-30 05:31 | 24.54332 | 118.13207 | 77 ft | 0 kts | 230° |
| 2026-04-30 05:31 | 24.54335 | 118.13211 | 77 ft | 0 kts | 232° |
| 2026-04-30 05:37 | 24.54330 | 118.13203 | 77 ft | 3 kts | 231° |
| 2026-04-30 05:37 | 24.54301 | 118.13164 | 77 ft | 10 kts | 231° |
| 2026-04-30 05:38 | 24.54250 | 118.13095 | 77 ft | 13 kts | 232° |
| 2026-04-30 05:38 | 24.54181 | 118.12997 | 77 ft | 17 kts | 231° |
| 2026-04-30 05:38 | 24.54118 | 118.12899 | 77 ft | 13 kts | 255° |
| 2026-04-30 05:38 | 24.54160 | 118.12822 | 78 ft | 12 kts | 320° |
| 2026-04-30 05:39 | 24.54184 | 118.12740 | 78 ft | 13 kts | 242° |
| 2026-04-30 05:39 | 24.54121 | 118.12646 | 78 ft | 17 kts | 232° |
| 2026-04-30 05:39 | 24.54041 | 118.12534 | 78 ft | 18 kts | 232° |
| 2026-04-30 05:39 | 24.53954 | 118.12412 | 78 ft | 21 kts | 232° |
| 2026-04-30 05:40 | 24.53859 | 118.12279 | 78 ft | 21 kts | 231° |
| 2026-04-30 05:40 | 24.53770 | 118.12155 | 78 ft | 19 kts | 231° |
| 2026-04-30 05:40 | 24.53691 | 118.12045 | 78 ft | 17 kts | 233° |
| 2026-04-30 05:40 | 24.53619 | 118.11944 | 78 ft | 15 kts | 231° |
| 2026-04-30 05:41 | 24.53553 | 118.11852 | 78 ft | 15 kts | 232° |
| 2026-04-30 05:41 | 24.53483 | 118.11753 | 78 ft | 15 kts | 231° |
| 2026-04-30 05:41 | 24.53419 | 118.11664 | 78 ft | 14 kts | 232° |
| 2026-04-30 05:41 | 24.53404 | 118.11575 | 78 ft | 0 kts | 282° |
| 2026-04-30 05:42 | 24.53406 | 118.11567 | 78 ft | 3 kts | 282° |
| 2026-04-30 05:42 | 24.53422 | 118.11516 | 78 ft | 10 kts | 300° |
| 2026-04-30 05:43 | 24.53487 | 118.11483 | 78 ft | 10 kts | 27° |
| 2026-04-30 05:43 | 24.53513 | 118.11507 | 78 ft | 0 kts | 49° |
| 2026-04-30 05:45 | 24.53528 | 118.11526 | 78 ft | 19 kts | 50° |
| 2026-04-30 05:46 | 24.53743 | 118.11826 | 78 ft | 79 kts | 52° |
| 2026-04-30 05:46 | 24.54200 | 118.12463 | 78 ft | 131 kts | 52° |
| 2026-04-30 05:46 | 24.54864 | 118.13393 | 79 ft | 175 kts | 52° |
| 2026-04-30 05:46 | 24.55645 | 118.14503 | 420 ft | 186 kts | 53° |
| 2026-04-30 05:47 | 24.56418 | 118.15602 | 934 ft | 187 kts | 51° |
| 2026-04-30 05:47 | 24.57236 | 118.16724 | 1579 ft | 193 kts | 51° |
| 2026-04-30 05:47 | 24.58066 | 118.17883 | 2359 ft | 195 kts | 51° |
| 2026-04-30 05:47 | 24.58909 | 118.19064 | 3016 ft | 202 kts | 50° |
| 2026-04-30 05:48 | 24.59781 | 118.20286 | 3671 ft | 209 kts | 50° |
| 2026-04-30 05:48 | 24.60689 | 118.21560 | 4311 ft | 216 kts | 50° |
| 2026-04-30 05:48 | 24.61612 | 118.22855 | 4965 ft | 220 kts | 51° |
| 2026-04-30 05:48 | 24.62317 | 118.24378 | 5519 ft | 230 kts | 76° |
| 2026-04-30 05:49 | 24.62362 | 118.26130 | 6105 ft | 235 kts | 104° |
| 2026-04-30 05:49 | 24.61694 | 118.27766 | 6688 ft | 236 kts | 132° |
| 2026-04-30 05:49 | 24.60463 | 118.28886 | 7326 ft | 230 kts | 159° |
| 2026-04-30 05:49 | 24.58958 | 118.29307 | 7953 ft | 223 kts | 185° |
| 2026-04-30 05:50 | 24.57480 | 118.29008 | 8578 ft | 217 kts | 208° |
| 2026-04-30 05:50 | 24.56260 | 118.28091 | 9199 ft | 213 kts | 230° |
| 2026-04-30 05:50 | 24.55306 | 118.26878 | 9894 ft | 211 kts | 233° |
| 2026-04-30 05:50 | 24.54385 | 118.25605 | 10539 ft | 213 kts | 234° |
| 2026-04-30 05:51 | 24.53489 | 118.24343 | 11143 ft | 215 kts | 234° |
| 2026-04-30 05:51 | 24.52568 | 118.23046 | 11764 ft | 216 kts | 234° |
| 2026-04-30 05:51 | 24.51635 | 118.21733 | 12333 ft | 219 kts | 234° |
| 2026-04-30 05:51 | 24.50704 | 118.20422 | 12842 ft | 226 kts | 235° |
| 2026-04-30 05:52 | 24.49694 | 118.18993 | 13090 ft | 246 kts | 235° |
| 2026-04-30 05:52 | 24.48609 | 118.17461 | 13415 ft | 265 kts | 234° |
| 2026-04-30 05:52 | 24.47442 | 118.15814 | 13794 ft | 282 kts | 234° |
| 2026-04-30 05:52 | 24.46204 | 118.14070 | 14323 ft | 294 kts | 234° |
| 2026-04-30 05:53 | 24.44949 | 118.12304 | 15079 ft | 298 kts | 234° |
| 2026-04-30 05:53 | 24.43655 | 118.10480 | 15557 ft | 312 kts | 234° |
| 2026-04-30 05:53 | 24.42287 | 118.08553 | 16006 ft | 327 kts | 234° |
| 2026-04-30 05:53 | 24.40851 | 118.06530 | 16419 ft | 342 kts | 234° |
| 2026-04-30 05:54 | 24.39367 | 118.04443 | 16851 ft | 357 kts | 234° |
| 2026-04-30 05:54 | 24.37816 | 118.02261 | 17285 ft | 371 kts | 235° |
| 2026-04-30 05:54 | 24.36207 | 117.99998 | 17691 ft | 385 kts | 234° |
| 2026-04-30 05:54 | 24.34508 | 117.97610 | 18082 ft | 399 kts | 234° |
| 2026-04-30 05:55 | 24.32807 | 117.95222 | 18642 ft | 407 kts | 234° |
| 2026-04-30 05:55 | 24.31045 | 117.92752 | 19324 ft | 411 kts | 235° |
| 2026-04-30 05:55 | 24.29300 | 117.90307 | 20025 ft | 413 kts | 235° |
| 2026-04-30 05:55 | 24.27508 | 117.87796 | 20679 ft | 418 kts | 235° |
| 2026-04-30 05:56 | 24.25733 | 117.85310 | 21279 ft | 422 kts | 234° |
| 2026-04-30 05:56 | 24.23752 | 117.82858 | 21883 ft | 429 kts | 229° |
| 2026-04-30 05:56 | 24.21641 | 117.80575 | 22465 ft | 433 kts | 227° |
| 2026-04-30 05:56 | 24.19487 | 117.78266 | 23073 ft | 437 kts | 227° |
| 2026-04-30 05:57 | 24.17320 | 117.75944 | 23727 ft | 439 kts | 227° |
| 2026-04-30 05:57 | 24.15115 | 117.73583 | 24417 ft | 441 kts | 227° |
| 2026-04-30 05:57 | 24.12922 | 117.71233 | 25004 ft | 445 kts | 227° |
| 2026-04-30 05:57 | 24.10706 | 117.68858 | 25510 ft | 450 kts | 227° |
| 2026-04-30 05:58 | 24.08460 | 117.66452 | 26067 ft | 455 kts | 227° |
| 2026-04-30 05:58 | 24.06195 | 117.64028 | 26669 ft | 458 kts | 227° |
| 2026-04-30 05:58 | 24.03910 | 117.61582 | 27275 ft | 461 kts | 227° |
| 2026-04-30 05:58 | 24.01616 | 117.59121 | 27881 ft | 463 kts | 227° |
| 2026-04-30 05:59 | 23.99315 | 117.56654 | 28442 ft | 467 kts | 227° |
| 2026-04-30 05:59 | 23.96995 | 117.54169 | 28970 ft | 470 kts | 227° |
| 2026-04-30 05:59 | 23.94657 | 117.51664 | 29520 ft | 473 kts | 227° |
| 2026-04-30 05:59 | 23.92314 | 117.49157 | 30213 ft | 473 kts | 227° |
| 2026-04-30 06:00 | 23.89988 | 117.46670 | 31063 ft | 468 kts | 227° |
| 2026-04-30 06:00 | 23.87671 | 117.44177 | 31938 ft | 462 kts | 229° |
| 2026-04-30 06:00 | 23.85626 | 117.41512 | 32643 ft | 457 kts | 236° |
| 2026-04-30 06:00 | 23.83935 | 117.38596 | 32824 ft | 459 kts | 244° |
| 2026-04-30 06:01 | 23.81666 | 117.32162 | 32845 ft | 452 kts | 253° |
| 2026-04-30 06:01 | 23.79836 | 117.25534 | 32837 ft | 453 kts | 253° |
| 2026-04-30 06:02 | 23.77983 | 117.18922 | 32835 ft | 454 kts | 253° |
| 2026-04-30 06:02 | 23.75323 | 117.12751 | 32836 ft | 456 kts | 237° |
| 2026-04-30 06:03 | 23.71133 | 117.07494 | 32840 ft | 458 kts | 229° |
| 2026-04-30 06:03 | 23.66723 | 117.02467 | 32835 ft | 459 kts | 229° |
| 2026-04-30 06:04 | 23.62329 | 116.97468 | 32836 ft | 458 kts | 229° |
| 2026-04-30 06:05 | 23.55651 | 116.89878 | 32838 ft | 458 kts | 229° |
| 2026-04-30 06:05 | 23.51231 | 116.84862 | 32840 ft | 460 kts | 229° |
| 2026-04-30 06:06 | 23.46807 | 116.79846 | 32838 ft | 459 kts | 229° |
| 2026-04-30 06:06 | 23.42150 | 116.75121 | 32844 ft | 462 kts | 221° |
| 2026-04-30 06:07 | 23.37000 | 116.70830 | 32836 ft | 463 kts | 220° |
| 2026-04-30 06:07 | 23.31875 | 116.66576 | 32837 ft | 463 kts | 220° |
| 2026-04-30 06:08 | 23.26734 | 116.62309 | 32835 ft | 465 kts | 221° |
| 2026-04-30 06:08 | 23.21622 | 116.58070 | 32831 ft | 464 kts | 220° |
| 2026-04-30 06:09 | 23.16456 | 116.53790 | 32828 ft | 464 kts | 220° |
| 2026-04-30 06:09 | 23.11352 | 116.49565 | 32825 ft | 465 kts | 220° |
| 2026-04-30 06:10 | 23.06186 | 116.45292 | 32820 ft | 465 kts | 220° |
| 2026-04-30 06:10 | 23.01060 | 116.41058 | 32813 ft | 464 kts | 220° |
| 2026-04-30 06:11 | 22.95896 | 116.36795 | 32809 ft | 464 kts | 220° |
| 2026-04-30 06:11 | 22.90765 | 116.32541 | 32809 ft | 465 kts | 220° |
| 2026-04-30 06:12 | 22.85637 | 116.28280 | 32812 ft | 465 kts | 220° |
| 2026-04-30 06:12 | 22.80485 | 116.24004 | 32811 ft | 466 kts | 220° |
| 2026-04-30 06:13 | 22.75313 | 116.19716 | 32808 ft | 465 kts | 220° |
| 2026-04-30 06:13 | 22.70178 | 116.15472 | 32811 ft | 466 kts | 220° |
| 2026-04-30 06:14 | 22.65013 | 116.11262 | 32801 ft | 465 kts | 220° |
| 2026-04-30 06:14 | 22.59844 | 116.07053 | 32802 ft | 464 kts | 220° |
| 2026-04-30 06:15 | 22.54665 | 116.02838 | 32803 ft | 465 kts | 220° |
| 2026-04-30 06:15 | 22.49530 | 115.98663 | 32804 ft | 465 kts | 220° |
| 2026-04-30 06:16 | 22.44366 | 115.94468 | 32417 ft | 459 kts | 220° |
| 2026-04-30 06:16 | 22.41800 | 115.92384 | 31419 ft | 465 kts | 220° |
| 2026-04-30 06:16 | 22.39214 | 115.90284 | 30442 ft | 469 kts | 219° |
| 2026-04-30 06:16 | 22.36638 | 115.88158 | 29986 ft | 461 kts | 223° |
| 2026-04-30 06:17 | 22.34394 | 115.85795 | 29563 ft | 451 kts | 231° |
| 2026-04-30 06:17 | 22.32532 | 115.83064 | 29052 ft | 444 kts | 240° |
| 2026-04-30 06:17 | 22.31154 | 115.80135 | 28533 ft | 438 kts | 249° |
| 2026-04-30 06:17 | 22.30242 | 115.77048 | 28005 ft | 434 kts | 257° |
| 2026-04-30 06:18 | 22.29792 | 115.73841 | 27464 ft | 430 kts | 265° |
| 2026-04-30 06:18 | 22.29585 | 115.70637 | 26933 ft | 430 kts | 266° |
| 2026-04-30 06:18 | 22.29413 | 115.67381 | 26392 ft | 439 kts | 266° |
| 2026-04-30 06:18 | 22.29265 | 115.64083 | 25832 ft | 438 kts | 267° |
| 2026-04-30 06:19 | 22.29136 | 115.60844 | 25287 ft | 435 kts | 267° |
| 2026-04-30 06:19 | 22.29018 | 115.57619 | 24744 ft | 432 kts | 267° |
| 2026-04-30 06:19 | 22.28907 | 115.54369 | 24187 ft | 428 kts | 267° |
| 2026-04-30 06:19 | 22.28804 | 115.51204 | 23654 ft | 424 kts | 268° |
| 2026-04-30 06:20 | 22.28704 | 115.48035 | 23116 ft | 421 kts | 268° |
| 2026-04-30 06:20 | 22.28608 | 115.44894 | 22568 ft | 418 kts | 268° |
| 2026-04-30 06:20 | 22.28515 | 115.41803 | 22035 ft | 415 kts | 268° |
| 2026-04-30 06:20 | 22.28423 | 115.38718 | 21484 ft | 412 kts | 268° |
| 2026-04-30 06:21 | 22.28331 | 115.35628 | 20926 ft | 410 kts | 268° |
| 2026-04-30 06:21 | 22.28240 | 115.32569 | 20393 ft | 407 kts | 268° |
| 2026-04-30 06:21 | 22.28148 | 115.29552 | 19845 ft | 404 kts | 268° |
| 2026-04-30 06:21 | 22.28054 | 115.26511 | 19287 ft | 402 kts | 268° |
| 2026-04-30 06:22 | 22.27961 | 115.23513 | 18750 ft | 400 kts | 268° |
| 2026-04-30 06:22 | 22.27868 | 115.20527 | 18193 ft | 398 kts | 268° |
| 2026-04-30 06:22 | 22.27776 | 115.17585 | 17638 ft | 395 kts | 268° |
| 2026-04-30 06:22 | 22.27684 | 115.14639 | 17103 ft | 393 kts | 268° |
| 2026-04-30 06:23 | 22.27592 | 115.11698 | 16544 ft | 391 kts | 268° |
| 2026-04-30 06:23 | 22.27500 | 115.08785 | 16007 ft | 389 kts | 268° |
| 2026-04-30 06:23 | 22.27407 | 115.05881 | 15454 ft | 387 kts | 268° |
| 2026-04-30 06:23 | 22.27315 | 115.02977 | 14885 ft | 385 kts | 268° |
| 2026-04-30 06:24 | 22.27223 | 115.00135 | 14357 ft | 383 kts | 268° |
| 2026-04-30 06:24 | 22.27131 | 114.97274 | 13798 ft | 381 kts | 268° |
| 2026-04-30 06:24 | 22.27039 | 114.94438 | 13243 ft | 378 kts | 268° |
| 2026-04-30 06:24 | 22.26946 | 114.91599 | 12704 ft | 376 kts | 268° |
| 2026-04-30 06:25 | 22.26855 | 114.88801 | 12167 ft | 373 kts | 268° |
| 2026-04-30 06:25 | 22.26762 | 114.85997 | 11594 ft | 371 kts | 268° |
| 2026-04-30 06:25 | 22.26671 | 114.83235 | 11118 ft | 366 kts | 267° |
| 2026-04-30 06:25 | 22.26316 | 114.80595 | 11010 ft | 348 kts | 254° |
| 2026-04-30 06:26 | 22.25367 | 114.78290 | 11012 ft | 332 kts | 242° |
| 2026-04-30 06:26 | 22.24096 | 114.76251 | 10896 ft | 322 kts | 234° |
| 2026-04-30 06:26 | 22.22672 | 114.74412 | 10733 ft | 316 kts | 230° |
| 2026-04-30 06:26 | 22.21151 | 114.72687 | 10572 ft | 313 kts | 227° |
| 2026-04-30 06:27 | 22.19635 | 114.71075 | 10394 ft | 304 kts | 226° |
| 2026-04-30 06:27 | 22.18138 | 114.69524 | 10281 ft | 293 kts | 226° |
| 2026-04-30 06:27 | 22.16676 | 114.68018 | 10162 ft | 283 kts | 226° |
| 2026-04-30 06:27 | 22.15278 | 114.66582 | 10044 ft | 273 kts | 226° |
| 2026-04-30 06:28 | 22.13923 | 114.65190 | 9924 ft | 267 kts | 226° |
| 2026-04-30 06:28 | 22.12578 | 114.63808 | 9798 ft | 265 kts | 226° |
| 2026-04-30 06:28 | 22.11251 | 114.62446 | 9671 ft | 264 kts | 226° |
| 2026-04-30 06:28 | 22.09916 | 114.61076 | 9548 ft | 264 kts | 226° |
| 2026-04-30 06:29 | 22.08581 | 114.59706 | 9429 ft | 264 kts | 226° |
| 2026-04-30 06:29 | 22.07240 | 114.58332 | 9299 ft | 264 kts | 226° |
| 2026-04-30 06:29 | 22.05912 | 114.56971 | 9178 ft | 263 kts | 226° |
| 2026-04-30 06:29 | 22.04590 | 114.55616 | 9056 ft | 262 kts | 226° |
| 2026-04-30 06:30 | 22.03261 | 114.54254 | 8927 ft | 262 kts | 226° |
| 2026-04-30 06:30 | 22.02150 | 114.52734 | 8790 ft | 259 kts | 245° |
| 2026-04-30 06:30 | 22.01408 | 114.50981 | 8686 ft | 259 kts | 248° |
| 2026-04-30 06:30 | 22.00716 | 114.49181 | 8570 ft | 259 kts | 249° |
| 2026-04-30 06:31 | 22.00031 | 114.47383 | 8449 ft | 259 kts | 249° |
| 2026-04-30 06:31 | 21.99345 | 114.45587 | 8336 ft | 259 kts | 249° |
| 2026-04-30 06:31 | 21.98654 | 114.43780 | 8222 ft | 259 kts | 249° |
| 2026-04-30 06:31 | 21.97971 | 114.41997 | 8108 ft | 259 kts | 249° |
| 2026-04-30 06:32 | 21.97288 | 114.40213 | 7990 ft | 259 kts | 249° |
| 2026-04-30 06:32 | 21.96603 | 114.38426 | 7870 ft | 258 kts | 249° |
| 2026-04-30 06:32 | 21.95913 | 114.36625 | 7755 ft | 258 kts | 249° |
| 2026-04-30 06:32 | 21.95233 | 114.34850 | 7640 ft | 258 kts | 249° |
| 2026-04-30 06:33 | 21.94553 | 114.33078 | 7530 ft | 258 kts | 249° |
| 2026-04-30 06:33 | 21.93867 | 114.31290 | 7414 ft | 257 kts | 249° |
| 2026-04-30 06:33 | 21.93177 | 114.29494 | 7298 ft | 257 kts | 249° |
| 2026-04-30 06:33 | 21.92503 | 114.27737 | 7184 ft | 257 kts | 249° |
| 2026-04-30 06:34 | 21.91821 | 114.25962 | 7069 ft | 256 kts | 249° |
| 2026-04-30 06:34 | 21.91142 | 114.24197 | 6955 ft | 255 kts | 249° |
| 2026-04-30 06:34 | 21.90463 | 114.22431 | 6839 ft | 256 kts | 249° |
| 2026-04-30 06:34 | 21.89821 | 114.20636 | 6710 ft | 256 kts | 258° |
| 2026-04-30 06:35 | 21.89788 | 114.18745 | 6589 ft | 255 kts | 283° |
| 2026-04-30 06:35 | 21.90441 | 114.16964 | 6489 ft | 256 kts | 296° |
| 2026-04-30 06:35 | 21.91272 | 114.15279 | 6377 ft | 256 kts | 297° |
| 2026-04-30 06:35 | 21.92141 | 114.13592 | 6258 ft | 255 kts | 298° |
| 2026-04-30 06:36 | 21.93010 | 114.11915 | 6144 ft | 256 kts | 298° |
| 2026-04-30 06:36 | 21.93864 | 114.10264 | 6028 ft | 255 kts | 298° |
| 2026-04-30 06:36 | 21.94737 | 114.08575 | 5912 ft | 255 kts | 298° |
| 2026-04-30 06:36 | 21.95596 | 114.06911 | 5793 ft | 255 kts | 298° |
| 2026-04-30 06:37 | 21.96459 | 114.05241 | 5680 ft | 255 kts | 298° |
| 2026-04-30 06:37 | 21.97314 | 114.03585 | 5567 ft | 254 kts | 298° |
| 2026-04-30 06:37 | 21.98180 | 114.01907 | 5452 ft | 253 kts | 298° |
| 2026-04-30 06:37 | 21.99030 | 114.00259 | 5333 ft | 253 kts | 298° |
| 2026-04-30 06:38 | 21.99885 | 113.98603 | 5226 ft | 252 kts | 298° |
| 2026-04-30 06:38 | 22.00742 | 113.96941 | 5115 ft | 252 kts | 298° |
| 2026-04-30 06:38 | 22.01594 | 113.95290 | 5004 ft | 252 kts | 299° |
| 2026-04-30 06:38 | 22.02444 | 113.93640 | 4892 ft | 252 kts | 299° |
| 2026-04-30 06:39 | 22.03286 | 113.92004 | 4784 ft | 252 kts | 299° |
| 2026-04-30 06:39 | 22.04135 | 113.90358 | 4668 ft | 252 kts | 299° |
| 2026-04-30 06:39 | 22.04989 | 113.88698 | 4546 ft | 252 kts | 299° |
| 2026-04-30 06:39 | 22.05843 | 113.87040 | 4430 ft | 251 kts | 299° |
| 2026-04-30 06:40 | 22.06692 | 113.85390 | 4320 ft | 251 kts | 299° |
| 2026-04-30 06:40 | 22.07532 | 113.83756 | 4210 ft | 251 kts | 300° |
| 2026-04-30 06:40 | 22.08382 | 113.82104 | 4103 ft | 252 kts | 300° |
| 2026-04-30 06:40 | 22.09223 | 113.80468 | 3995 ft | 251 kts | 300° |
| 2026-04-30 06:41 | 22.10082 | 113.78805 | 3873 ft | 251 kts | 302° |
| 2026-04-30 06:41 | 22.11258 | 113.77444 | 3744 ft | 250 kts | 327° |
| 2026-04-30 06:41 | 22.12754 | 113.76560 | 3642 ft | 243 kts | 334° |
| 2026-04-30 06:41 | 22.14261 | 113.75797 | 3536 ft | 234 kts | 335° |
| 2026-04-30 06:42 | 22.15724 | 113.75069 | 3430 ft | 224 kts | 336° |
| 2026-04-30 06:42 | 22.17104 | 113.74383 | 3331 ft | 214 kts | 336° |
| 2026-04-30 06:42 | 22.18420 | 113.73726 | 3235 ft | 202 kts | 336° |
| 2026-04-30 06:42 | 22.19665 | 113.73104 | 3146 ft | 191 kts | 336° |
| 2026-04-30 06:43 | 22.20898 | 113.72646 | 3041 ft | 183 kts | 359° |
| 2026-04-30 06:43 | 22.22123 | 113.72940 | 2972 ft | 184 kts | 25° |
| 2026-04-30 06:43 | 22.23238 | 113.73615 | 2899 ft | 184 kts | 31° |
| 2026-04-30 06:43 | 22.24323 | 113.74368 | 2816 ft | 183 kts | 32° |
| 2026-04-30 06:44 | 22.25385 | 113.75114 | 2733 ft | 183 kts | 32° |
| 2026-04-30 06:44 | 22.26405 | 113.75932 | 2597 ft | 185 kts | 47° |
| 2026-04-30 06:44 | 22.27016 | 113.77135 | 2363 ft | 184 kts | 69° |
| 2026-04-30 06:44 | 22.27403 | 113.78442 | 2141 ft | 181 kts | 70° |
| 2026-04-30 06:45 | 22.27813 | 113.79726 | 1922 ft | 179 kts | 69° |
| 2026-04-30 06:45 | 22.28220 | 113.80968 | 1698 ft | 170 kts | 69° |
| 2026-04-30 06:45 | 22.28596 | 113.82126 | 1503 ft | 159 kts | 69° |
| 2026-04-30 06:45 | 22.28952 | 113.83221 | 1306 ft | 153 kts | 68° |
| 2026-04-30 06:46 | 22.29300 | 113.84294 | 1113 ft | 151 kts | 68° |
| 2026-04-30 06:46 | 22.29650 | 113.85375 | 914 ft | 150 kts | 68° |
| 2026-04-30 06:46 | 22.29995 | 113.86437 | 716 ft | 150 kts | 68° |
| 2026-04-30 06:46 | 22.30341 | 113.87505 | 518 ft | 152 kts | 68° |
| 2026-04-30 06:47 | 22.30688 | 113.88574 | 312 ft | 150 kts | 68° |
| 2026-04-30 06:47 | 22.31039 | 113.89628 | 121 ft | 149 kts | 68° |
| 2026-04-30 06:47 | 22.31371 | 113.90675 | 43 ft | 135 kts | 67° |
| 2026-04-30 06:47 | 22.31631 | 113.91460 | 42 ft | 85 kts | 71° |
| 2026-04-30 06:48 | 22.31767 | 113.91884 | 42 ft | 42 kts | 71° |
| 2026-04-30 06:48 | 22.31784 | 113.92175 | 42 ft | 24 kts | 101° |
| 2026-04-30 06:48 | 22.31756 | 113.92318 | 42 ft | 12 kts | 103° |
| 2026-04-30 06:48 | 22.31731 | 113.92401 | 42 ft | 10 kts | 125° |
| 2026-04-30 06:49 | 22.31659 | 113.92439 | 42 ft | 11 kts | 173° |
| 2026-04-30 06:49 | 22.31583 | 113.92425 | 42 ft | 10 kts | 202° |
| 2026-04-30 06:49 | 22.31552 | 113.92409 | 42 ft | 4 kts | 205° |
| 2026-04-30 06:49 | 22.31541 | 113.92404 | 42 ft | 0 kts | 205° |